Time;durP1;ratioP1;P1;durP2;ratioP2;P2;SDS_P1;SDS_P2;PMS_P1;PMS_P2;Temp;Humidity;BMP_temperature;BMP_pressure;BME280_temperature;BME280_humidity;BME280_pressure;Samples;Min_cycle;Max_cycle;Signal;HPM_P1;HPM_P2
2023/02/07 00:00:40;;;;;;;31.10;17.00;;;3.10;99.90;;;;;;4968406;28;20216;-76
2023/02/07 00:03:06;;;;;;;23.83;15.57;;;2.90;99.90;;;;;;4969270;28;20400;-76
2023/02/07 00:05:31;;;;;;;30.03;17.40;;;3.20;99.90;;;;;;4972662;28;20172;-76
2023/02/07 00:07:57;;;;;;;32.00;17.40;;;2.90;99.90;;;;;;4973812;28;20173;-76
2023/02/07 00:10:23;;;;;;;26.73;16.13;;;3.10;99.90;;;;;;4973711;28;20223;-76
2023/02/07 00:12:49;;;;;;;28.97;17.20;;;3.20;99.90;;;;;;4972920;28;20227;-76
2023/02/07 00:15:15;;;;;;;28.83;17.17;;;2.80;99.90;;;;;;4974107;28;20267;-76
2023/02/07 00:17:40;;;;;;;29.07;16.40;;;3.00;99.90;;;;;;4973727;28;20408;-76
2023/02/07 00:20:06;;;;;;;28.23;16.33;;;3.10;99.90;;;;;;4974064;28;20867;-76
2023/02/07 00:22:32;;;;;;;31.67;16.87;;;2.90;99.90;;;;;;4973238;28;20180;-76
2023/02/07 00:24:58;;;;;;;33.97;17.47;;;2.90;99.90;;;;;;4974181;28;20455;-76
2023/02/07 00:27:23;;;;;;;27.40;17.17;;;2.80;99.90;;;;;;4973657;28;20419;-76
2023/02/07 00:29:49;;;;;;;26.37;16.23;;;2.90;99.90;;;;;;4973546;28;20751;-76
2023/02/07 00:32:15;;;;;;;36.53;17.37;;;2.80;99.90;;;;;;4973993;28;20172;-76
2023/02/07 00:34:41;;;;;;;34.10;17.90;;;2.80;99.90;;;;;;4973607;28;20206;-76
2023/02/07 00:37:06;;;;;;;30.80;17.87;;;2.90;99.90;;;;;;4973576;28;20572;-76
2023/02/07 00:39:32;;;;;;;34.97;17.60;;;3.00;99.90;;;;;;4973271;28;20199;-76
2023/02/07 00:41:58;;;;;;;26.30;17.37;;;2.90;99.90;;;;;;4972318;28;20208;-76
2023/02/07 00:44:23;;;;;;;29.00;17.83;;;2.90;99.90;;;;;;4973324;28;20623;-76
2023/02/07 00:46:49;;;;;;;26.67;17.40;;;3.00;99.90;;;;;;4973448;28;20524;-76
2023/02/07 00:49:15;;;;;;;32.83;18.30;;;3.10;99.90;;;;;;4972092;28;20281;-76
2023/02/07 00:51:40;;;;;;;28.50;18.10;;;2.80;99.90;;;;;;4972100;28;20192;-76
2023/02/07 00:54:06;;;;;;;28.70;17.53;;;2.70;99.90;;;;;;4972958;28;20188;-76
2023/02/07 00:56:32;;;;;;;27.43;18.07;;;2.90;99.90;;;;;;4973565;28;20165;-76
2023/02/07 00:58:58;;;;;;;28.60;16.53;;;2.60;99.90;;;;;;4972334;28;20176;-76
2023/02/07 01:01:26;;;;;;;29.77;18.20;;;2.60;99.90;;;;;;4973198;28;20435;-76
2023/02/07 01:03:52;;;;;;;29.87;17.63;;;2.60;99.90;;;;;;4973115;28;20416;-76
2023/02/07 01:06:18;;;;;;;30.23;16.00;;;2.60;99.90;;;;;;4973375;28;20788;-76
2023/02/07 01:08:44;;;;;;;27.47;16.00;;;2.50;99.90;;;;;;4971664;28;20821;-76
2023/02/07 01:11:13;;;;;;;34.73;16.80;;;2.60;99.90;;;;;;4971674;28;20251;-76
2023/02/07 01:13:42;;;;;;;25.53;16.73;;;2.60;99.90;;;;;;4972676;28;20219;-76
2023/02/07 01:16:17;;;;;;;30.80;17.53;;;2.70;99.90;;;;;;4973076;28;20462;-76
2023/02/07 01:18:43;;;;;;;29.23;17.50;;;2.40;99.90;;;;;;4972746;28;20412;-76
2023/02/07 01:21:20;;;;;;;28.70;16.50;;;2.50;99.90;;;;;;4972035;28;20974;-76
2023/02/07 01:23:46;;;;;;;27.83;16.27;;;2.50;99.90;;;;;;4971505;28;20288;-76
2023/02/07 01:26:12;;;;;;;27.07;17.10;;;2.60;99.90;;;;;;4972939;28;20925;-76
2023/02/07 01:28:38;;;;;;;25.03;15.57;;;2.50;99.90;;;;;;4972510;28;20448;-76
2023/02/07 01:31:11;;;;;;;26.53;16.57;;;2.50;99.90;;;;;;4972427;28;20231;-76
2023/02/07 01:33:37;;;;;;;26.13;16.57;;;2.40;99.90;;;;;;4971140;28;20408;-76
2023/02/07 01:36:12;;;;;;;23.67;14.90;;;2.30;99.90;;;;;;4972718;28;20408;-76
2023/02/07 01:38:37;;;;;;;27.67;15.73;;;2.50;99.90;;;;;;4972548;28;20892;-76
2023/02/07 01:41:04;;;;;;;20.30;14.40;;;2.40;99.90;;;;;;4972252;28;20443;-76
2023/02/07 01:43:30;;;;;;;25.00;15.60;;;2.20;99.90;;;;;;4971912;28;20283;-76
2023/02/07 01:45:56;;;;;;;20.60;14.00;;;2.30;99.90;;;;;;4971332;28;20511;-76
2023/02/07 01:48:26;;;;;;;22.37;15.83;;;2.30;99.90;;;;;;4972019;28;20416;-76
2023/02/07 01:50:56;;;;;;;27.10;16.27;;;2.30;99.90;;;;;;4972272;28;20196;-76
2023/02/07 01:53:24;;;;;;;23.90;15.90;;;2.30;99.90;;;;;;4972095;28;20783;-76
2023/02/07 01:55:54;;;;;;;26.20;15.57;;;2.00;99.90;;;;;;4972353;28;20404;-76
2023/02/07 01:58:21;;;;;;;24.30;16.50;;;2.30;99.90;;;;;;4971936;28;20419;-76
2023/02/07 02:00:47;;;;;;;35.20;17.30;;;2.30;99.90;;;;;;4970785;28;20440;-76
2023/02/07 02:03:13;;;;;;;35.23;17.73;;;2.10;99.90;;;;;;4971711;28;20416;-76
2023/02/07 02:05:40;;;;;;;31.23;17.50;;;2.20;99.90;;;;;;4971165;28;20474;-76
2023/02/07 02:08:06;;;;;;;53.83;18.73;;;2.00;99.90;;;;;;4971798;28;20208;-76
2023/02/07 02:10:59;;;;;;;59.27;19.57;;;2.10;99.90;;;;;;4971540;28;20498;-76
2023/02/07 02:13:58;;;;;;;65.20;18.67;;;2.10;99.90;;;;;;4972249;28;20403;-76
2023/02/07 02:16:30;;;;;;;31.40;17.30;;;2.10;99.90;;;;;;4969721;28;21001;-76
2023/02/07 02:19:04;;;;;;;37.90;18.50;;;2.00;99.90;;;;;;4971525;28;20473;-76
2023/02/07 02:22:00;;;;;;;40.17;18.43;;;1.70;99.90;;;;;;4971124;28;20845;-76
2023/02/07 02:24:56;;;;;;;33.57;17.03;;;1.80;99.90;;;;;;4971565;28;20412;-76
2023/02/07 02:27:28;;;;;;;38.53;18.20;;;2.00;99.90;;;;;;4971866;28;20412;-77
2023/02/07 02:30:32;;;;;;;39.90;17.20;;;1.80;99.90;;;;;;4972336;28;20510;-77
2023/02/07 02:33:24;;;;;;;44.67;17.90;;;1.90;99.90;;;;;;4971418;28;20555;-77
2023/02/07 02:36:05;;;;;;;40.27;18.33;;;2.00;99.90;;;;;;4957182;28;20850;-76
2023/02/07 02:38:33;;;;;;;53.87;17.17;;;1.60;99.90;;;;;;4971882;28;20416;-77
2023/02/07 02:41:22;;;;;;;60.67;17.80;;;1.80;99.90;;;;;;4972717;28;20932;-77
2023/02/07 02:44:06;;;;;;;65.00;19.40;;;1.90;99.90;;;;;;4972354;28;20420;-78
2023/02/07 02:46:37;;;;;;;47.40;18.17;;;1.70;99.90;;;;;;4972567;28;20416;-77
2023/02/07 02:49:06;;;;;;;33.63;16.70;;;1.80;99.90;;;;;;4971469;28;21005;-77
2023/02/07 02:51:32;;;;;;;56.40;17.30;;;1.70;99.90;;;;;;4972589;28;20436;-77
2023/02/07 02:53:59;;;;;;;35.23;16.60;;;1.70;99.90;;;;;;4972265;28;20455;-77
2023/02/07 02:57:03;;;;;;;42.47;16.17;;;1.80;99.90;;;;;;4972805;28;20475;-77
2023/02/07 02:59:32;;;;;;;38.50;14.67;;;1.80;99.90;;;;;;4972262;28;20467;-77
2023/02/07 03:02:12;;;;;;;31.30;15.87;;;1.50;99.90;;;;;;4972518;28;20419;-77
2023/02/07 03:05:09;;;;;;;31.97;15.43;;;1.70;99.90;;;;;;4970723;28;20507;-77
2023/02/07 03:08:30;;;;;;;20.70;13.53;;;1.60;99.90;;;;;;4948023;28;20868;-75
2023/02/07 03:11:10;;;;;;;24.00;14.83;;;1.30;99.90;;;;;;4991460;23;20849;-79
2023/02/07 03:13:51;;;;;;;22.00;13.97;;;1.50;99.90;;;;;;5015326;28;20413;-78
2023/02/07 03:16:23;;;;;;;23.83;14.30;;;1.40;99.90;;;;;;5033320;28;20398;-78
2023/02/07 03:19:18;;;;;;;21.30;14.70;;;1.40;99.90;;;;;;5033330;28;20437;-78
2023/02/07 03:21:49;;;;;;;19.20;14.50;;;1.30;99.90;;;;;;5033073;28;21007;-78
2023/02/07 03:24:26;;;;;;;20.57;13.67;;;1.40;99.90;;;;;;5015897;28;20417;-79
2023/02/07 03:27:03;;;;;;;21.33;13.53;;;1.30;99.90;;;;;;4999423;28;20427;-78
2023/02/07 03:29:33;;;;;;;18.53;13.07;;;1.40;99.90;;;;;;5033691;28;20459;-78
2023/02/07 03:32:02;;;;;;;19.73;14.00;;;1.30;99.90;;;;;;5016256;28;20429;-81
2023/02/07 03:34:51;;;;;;;21.77;14.30;;;1.50;99.90;;;;;;5033773;28;20791;-80
2023/02/07 03:37:38;;;;;;;17.90;12.70;;;1.50;99.90;;;;;;4999826;28;20418;-78
2023/02/07 03:40:05;;;;;;;16.60;13.17;;;1.40;99.90;;;;;;5032362;28;20437;-79
2023/02/07 03:42:38;;;;;;;19.40;13.00;;;1.30;99.90;;;;;;5015265;28;20898;-80
2023/02/07 03:45:07;;;;;;;17.60;13.03;;;1.20;99.90;;;;;;5015526;28;20432;-78
2023/02/07 03:47:33;;;;;;;19.37;14.43;;;1.10;99.90;;;;;;5033452;28;20406;-79
2023/02/07 03:49:58;;;;;;;17.80;12.70;;;1.30;99.90;;;;;;5015768;28;20448;-80
2023/02/07 03:52:24;;;;;;;18.77;13.17;;;1.40;99.90;;;;;;5000003;28;20527;-79
2023/02/07 03:54:50;;;;;;;18.57;13.87;;;1.30;99.90;;;;;;5000178;28;20178;-80
2023/02/07 03:57:16;;;;;;;18.63;12.90;;;1.00;99.90;;;;;;5016156;28;20228;-80
2023/02/07 03:59:41;;;;;;;19.53;13.47;;;1.30;99.90;;;;;;5000291;28;20353;-80
2023/02/07 04:02:07;;;;;;;19.03;13.43;;;1.30;99.90;;;;;;5017430;28;20420;-79
2023/02/07 04:04:33;;;;;;;19.70;13.50;;;1.30;99.90;;;;;;5015973;28;20287;-79
2023/02/07 04:06:58;;;;;;;18.97;12.37;;;1.00;99.90;;;;;;5015652;28;20638;-79
2023/02/07 04:09:24;;;;;;;19.83;13.03;;;1.10;99.90;;;;;;5016411;28;20214;-79
2023/02/07 04:11:51;;;;;;;25.10;13.47;;;1.20;99.90;;;;;;5016113;28;20214;-80
2023/02/07 04:14:20;;;;;;;19.50;12.70;;;1.00;99.90;;;;;;5033267;28;20182;-78
2023/02/07 04:16:47;;;;;;;20.90;14.37;;;1.10;99.90;;;;;;5032793;28;20478;-79
2023/02/07 04:19:14;;;;;;;19.10;12.80;;;1.20;99.90;;;;;;5015711;28;20507;-78
2023/02/07 04:21:39;;;;;;;25.03;14.30;;;1.10;99.90;;;;;;5032508;28;20503;-79
2023/02/07 04:24:05;;;;;;;20.07;14.20;;;0.90;99.90;;;;;;5016078;28;20796;-78
2023/02/07 04:26:31;;;;;;;18.67;13.87;;;1.00;99.90;;;;;;5033111;28;20269;-79
2023/02/07 04:28:56;;;;;;;21.33;13.30;;;1.00;99.90;;;;;;4999179;28;20218;-79
2023/02/07 04:31:22;;;;;;;24.37;13.27;;;1.10;99.90;;;;;;5033522;28;20194;-80
2023/02/07 04:33:48;;;;;;;19.80;12.77;;;1.20;99.90;;;;;;5016055;28;20182;-78
2023/02/07 04:36:14;;;;;;;24.10;14.40;;;1.00;99.90;;;;;;5015649;28;20255;-80
2023/02/07 04:38:39;;;;;;;21.47;12.80;;;1.00;99.90;;;;;;5015425;28;20178;-77
2023/02/07 04:41:06;;;;;;;17.77;12.40;;;1.20;99.90;;;;;;5032995;28;20437;-80
2023/02/07 04:43:34;;;;;;;18.40;11.93;;;1.00;99.90;;;;;;5015386;28;20276;-79
2023/02/07 04:46:01;;;;;;;18.93;12.67;;;1.10;99.90;;;;;;5013489;28;20426;-80
2023/02/07 04:48:27;;;;;;;15.57;11.27;;;0.90;99.90;;;;;;4996176;28;20805;-76
2023/02/07 04:50:53;;;;;;;18.80;12.87;;;0.90;99.90;;;;;;4997359;28;20468;-78
2023/02/07 04:53:18;;;;;;;16.23;11.77;;;0.90;99.90;;;;;;5016829;28;20406;-79
2023/02/07 04:55:48;;;;;;;23.10;12.60;;;0.90;99.90;;;;;;5015902;28;20449;-79
2023/02/07 04:58:14;;;;;;;19.60;12.30;;;0.90;99.90;;;;;;5017148;28;20175;-79
2023/02/07 05:00:39;;;;;;;15.73;12.80;;;1.20;99.90;;;;;;4999146;28;20449;-79
2023/02/07 05:03:05;;;;;;;19.03;12.73;;;1.10;99.90;;;;;;4983311;28;20187;-79
2023/02/07 05:05:31;;;;;;;18.40;11.90;;;1.10;99.90;;;;;;4998669;28;20528;-79
2023/02/07 05:07:56;;;;;;;16.63;11.30;;;0.90;99.90;;;;;;5015953;28;20194;-78
2023/02/07 05:10:22;;;;;;;17.53;12.50;;;0.70;99.90;;;;;;5016250;28;20223;-80
2023/02/07 05:12:48;;;;;;;18.90;12.70;;;0.90;99.90;;;;;;5015687;28;20241;-77
2023/02/07 05:15:13;;;;;;;18.10;12.10;;;0.90;99.90;;;;;;4998567;28;20179;-79
2023/02/07 05:17:39;;;;;;;20.30;12.93;;;0.80;99.90;;;;;;4998653;28;20183;-77
2023/02/07 05:20:06;;;;;;;20.87;13.00;;;0.70;99.90;;;;;;4999099;28;20207;-78
2023/02/07 05:22:31;;;;;;;18.73;13.07;;;0.60;99.90;;;;;;5016195;28;20171;-79
2023/02/07 05:24:57;;;;;;;18.10;12.90;;;0.80;99.90;;;;;;5015027;28;20921;-78
2023/02/07 05:27:23;;;;;;;21.13;12.90;;;0.80;99.90;;;;;;4998739;28;20281;-80
2023/02/07 05:29:48;;;;;;;18.27;11.70;;;0.80;99.90;;;;;;4998923;28;20671;-79
2023/02/07 05:35:00;;;;;;;25.43;13.07;;;0.90;99.90;;;;;;5016188;28;20171;-78
2023/02/07 05:37:26;;;;;;;18.87;13.10;;;0.90;99.90;;;;;;4997808;28;20501;-77
2023/02/07 05:39:51;;;;;;;20.20;13.70;;;0.80;99.90;;;;;;5027560;28;20186;-79
2023/02/07 05:42:17;;;;;;;19.67;12.83;;;0.80;99.90;;;;;;5036455;28;20447;-79
2023/02/07 05:44:43;;;;;;;17.80;11.77;;;0.80;99.90;;;;;;5019968;28;20550;-79
2023/02/07 05:47:09;;;;;;;16.00;11.23;;;0.80;99.90;;;;;;5041052;28;20445;-79
2023/02/07 05:49:35;;;;;;;21.80;12.80;;;0.80;99.90;;;;;;5022083;28;20472;-78
2023/02/07 05:52:00;;;;;;;20.00;15.40;;;0.90;99.90;;;;;;5040285;28;20199;-79
2023/02/07 05:54:26;;;;;;;20.43;14.77;;;0.80;99.90;;;;;;5041753;28;20466;-79
2023/02/07 05:56:52;;;;;;;19.60;13.40;;;0.80;99.90;;;;;;5041531;28;20462;-79
2023/02/07 05:59:17;;;;;;;18.00;12.03;;;0.80;99.90;;;;;;5041395;28;20189;-79
2023/02/07 06:01:43;;;;;;;18.33;12.33;;;0.70;99.90;;;;;;5038110;28;20690;-79
2023/02/07 06:04:09;;;;;;;21.50;12.53;;;0.90;99.90;;;;;;5036779;28;20201;-79
2023/02/07 06:06:34;;;;;;;16.70;11.97;;;1.00;99.90;;;;;;5023372;28;20421;-78
2023/02/07 06:09:00;;;;;;;18.13;12.30;;;0.80;99.90;;;;;;5006639;28;20210;-79
2023/02/07 06:11:26;;;;;;;18.87;12.03;;;0.80;99.90;;;;;;5040799;28;20210;-78
2023/02/07 06:13:51;;;;;;;19.63;12.87;;;0.90;99.90;;;;;;5041458;28;20277;-78
2023/02/07 06:16:17;;;;;;;15.37;11.77;;;0.90;99.90;;;;;;5006087;28;20242;-78
2023/02/07 06:18:42;;;;;;;20.63;12.10;;;1.00;99.90;;;;;;5040740;28;20182;-78
2023/02/07 06:21:08;;;;;;;15.67;10.80;;;0.90;99.90;;;;;;5021455;28;20241;-79
2023/02/07 06:23:34;;;;;;;18.37;10.97;;;0.90;99.90;;;;;;5006909;28;20213;-78
2023/02/07 06:25:59;;;;;;;18.17;11.43;;;0.80;99.90;;;;;;5024199;28;20198;-78
2023/02/07 06:28:25;;;;;;;18.77;11.77;;;0.90;99.90;;;;;;5022799;28;20225;-79
2023/02/07 06:30:52;;;;;;;19.47;12.50;;;1.00;99.90;;;;;;5023334;28;20206;-78
2023/02/07 06:33:17;;;;;;;18.83;12.60;;;0.90;99.90;;;;;;5023175;28;20201;-78
2023/02/07 06:35:46;;;;;;;18.13;12.50;;;0.80;99.90;;;;;;5023864;28;20425;-78
2023/02/07 06:38:15;;;;;;;20.63;13.20;;;0.70;99.90;;;;;;5040722;28;20186;-78
2023/02/07 06:40:42;;;;;;;18.70;11.80;;;0.70;99.90;;;;;;5023363;28;20499;-79
2023/02/07 06:43:09;;;;;;;22.53;12.90;;;0.70;99.90;;;;;;5002083;28;20474;-79
2023/02/07 06:45:35;;;;;;;17.70;11.00;;;0.70;99.90;;;;;;4997562;28;20840;-78
2023/02/07 06:48:00;;;;;;;21.30;11.80;;;0.70;99.90;;;;;;5014337;28;20425;-78
2023/02/07 06:50:26;;;;;;;20.63;12.13;;;0.50;99.90;;;;;;5035454;28;20455;-77
2023/02/07 06:52:52;;;;;;;17.57;13.07;;;0.50;99.90;;;;;;5003291;28;20178;-79
2023/02/07 06:55:17;;;;;;;29.87;12.80;;;0.80;99.90;;;;;;5038101;28;20178;-78
2023/02/07 06:57:43;;;;;;;14.87;11.70;;;0.70;99.90;;;;;;5021427;28;20186;-79
2023/02/07 07:00:09;;;;;;;19.47;12.00;;;0.70;99.90;;;;;;5040329;28;20214;-78
2023/02/07 07:02:35;;;;;;;18.87;13.03;;;0.70;99.90;;;;;;5040170;28;20186;-79
2023/02/07 07:05:00;;;;;;;19.30;11.87;;;0.60;99.90;;;;;;5040628;28;20400;-78
2023/02/07 07:07:26;;;;;;;18.13;12.23;;;0.60;99.90;;;;;;5040827;28;20525;-78
2023/02/07 07:09:52;;;;;;;17.47;12.23;;;0.70;99.90;;;;;;5040707;28;20304;-78
2023/02/07 07:12:17;;;;;;;19.73;11.47;;;0.80;99.90;;;;;;5040685;28;20186;-78
2023/02/07 07:14:43;;;;;;;17.83;11.07;;;0.70;99.90;;;;;;5022706;28;20642;-79
2023/02/07 07:17:09;;;;;;;16.30;11.00;;;0.70;99.90;;;;;;5022757;28;20183;-78
2023/02/07 07:19:34;;;;;;;15.93;10.10;;;0.80;99.90;;;;;;5023759;28;20212;-79
2023/02/07 07:22:00;;;;;;;16.07;10.90;;;0.70;99.90;;;;;;5022713;28;20213;-78
2023/02/07 07:24:26;;;;;;;14.40;11.00;;;0.70;99.90;;;;;;5040106;28;20189;-78
2023/02/07 07:26:52;;;;;;;15.47;10.00;;;0.70;99.90;;;;;;5022543;28;20186;-78
2023/02/07 07:29:18;;;;;;;15.23;10.37;;;0.80;99.90;;;;;;5040217;28;20448;-79
2023/02/07 07:31:44;;;;;;;16.20;10.87;;;0.70;99.90;;;;;;5039982;28;20190;-78
2023/02/07 07:34:10;;;;;;;15.50;10.47;;;0.60;99.90;;;;;;5022677;28;20416;-78
2023/02/07 07:36:36;;;;;;;17.10;10.80;;;0.70;99.90;;;;;;5022245;28;20413;-79
2023/02/07 07:39:02;;;;;;;16.00;10.57;;;0.70;99.90;;;;;;5040195;28;20459;-78
2023/02/07 07:41:27;;;;;;;15.40;10.73;;;0.80;99.90;;;;;;5022755;28;20438;-78
2023/02/07 07:43:54;;;;;;;18.60;10.80;;;0.90;99.90;;;;;;5022004;28;20421;-78
2023/02/07 07:46:19;;;;;;;14.00;9.60;;;1.20;99.90;;;;;;5039697;28;20178;-79
2023/02/07 07:48:45;;;;;;;18.40;11.17;;;1.10;99.90;;;;;;5006175;28;20453;-78
2023/02/07 07:51:11;;;;;;;13.43;10.13;;;1.10;99.90;;;;;;5005566;28;20198;-78
2023/02/07 07:53:36;;;;;;;17.10;10.33;;;1.20;99.90;;;;;;5039331;28;20171;-77
2023/02/07 07:56:02;;;;;;;12.20;10.13;;;1.50;99.90;;;;;;5022057;28;20181;-79
2023/02/07 07:58:28;;;;;;;17.10;9.50;;;1.40;99.90;;;;;;5021991;28;20561;-79
2023/02/07 08:00:54;;;;;;;15.10;10.37;;;1.70;99.90;;;;;;5039620;28;20472;-78
2023/02/07 08:03:20;;;;;;;13.67;10.37;;;1.60;99.90;;;;;;5039512;28;20244;-78
2023/02/07 08:05:46;;;;;;;13.77;10.50;;;1.70;99.90;;;;;;5038968;28;20178;-78
2023/02/07 08:08:13;;;;;;;13.13;10.30;;;1.90;99.90;;;;;;5039452;28;20507;-79
2023/02/07 08:10:39;;;;;;;12.00;9.50;;;1.80;99.90;;;;;;5021715;28;20886;-78
2023/02/07 08:13:05;;;;;;;16.67;11.07;;;1.90;99.90;;;;;;5022122;28;20432;-78
2023/02/07 08:15:31;;;;;;;18.90;11.40;;;2.20;99.90;;;;;;5039729;28;20860;-79
2023/02/07 08:17:57;;;;;;;19.73;11.97;;;2.40;99.90;;;;;;5039720;28;20615;-79
2023/02/07 08:20:23;;;;;;;18.03;11.80;;;2.90;99.90;;;;;;5022567;28;20194;-79
2023/02/07 08:22:48;;;;;;;20.30;10.80;;;2.90;99.90;;;;;;5040157;28;20654;-79
2023/02/07 08:25:14;;;;;;;15.43;11.03;;;3.30;99.90;;;;;;5040884;28;20440;-79
2023/02/07 08:27:40;;;;;;;13.57;9.73;;;3.40;99.90;;;;;;5026123;28;20179;-78
2023/02/07 08:30:08;;;;;;;17.77;11.07;;;3.50;99.90;;;;;;5025822;28;20993;-78
2023/02/07 08:32:33;;;;;;;14.13;10.73;;;4.00;99.90;;;;;;5025809;28;20178;-79
2023/02/07 08:34:59;;;;;;;13.43;11.07;;;4.10;99.90;;;;;;5042253;28;20413;-78
2023/02/07 08:37:25;;;;;;;14.20;10.20;;;4.00;99.90;;;;;;5008777;28;20173;-78
2023/02/07 08:39:51;;;;;;;14.13;9.47;;;4.30;99.90;;;;;;5006766;28;20643;-78
2023/02/07 08:42:21;;;;;;;14.97;10.50;;;4.20;99.90;;;;;;5020358;28;20185;-78
2023/02/07 08:44:48;;;;;;;15.70;8.73;;;4.50;99.90;;;;;;5036631;28;20862;-79
2023/02/07 08:47:15;;;;;;;11.23;8.67;;;4.70;99.90;;;;;;5005017;28;20825;-79
2023/02/07 08:49:40;;;;;;;10.13;8.17;;;5.10;99.90;;;;;;5020855;28;20948;-78
2023/02/07 08:52:06;;;;;;;9.07;7.90;;;5.10;99.90;;;;;;5038256;28;20421;-79
2023/02/07 08:54:32;;;;;;;12.80;8.33;;;5.50;99.90;;;;;;5019116;28;20665;-79
2023/02/07 08:56:58;;;;;;;9.70;7.60;;;5.50;99.90;;;;;;5018377;28;20217;-78
2023/02/07 08:59:23;;;;;;;12.20;10.10;;;5.60;99.90;;;;;;5017991;28;20216;-78
2023/02/07 09:01:49;;;;;;;9.83;7.87;;;5.70;99.90;;;;;;5019444;28;20244;-78
2023/02/07 09:04:15;;;;;;;11.27;8.07;;;5.80;99.90;;;;;;5019912;28;20595;-78
2023/02/07 09:06:40;;;;;;;12.07;8.27;;;5.90;99.90;;;;;;5021339;28;20545;-79
2023/02/07 09:09:06;;;;;;;12.13;9.30;;;6.00;99.90;;;;;;5024870;28;20216;-79
2023/02/07 09:11:32;;;;;;;9.60;7.77;;;6.00;99.90;;;;;;5004267;28;20271;-80
2023/02/07 09:13:58;;;;;;;11.27;7.77;;;6.20;99.90;;;;;;5036094;28;20417;-79
2023/02/07 09:16:24;;;;;;;10.23;7.80;;;6.30;99.90;;;;;;5018329;28;20483;-76
2023/02/07 09:18:50;;;;;;;8.73;7.13;;;6.50;99.90;;;;;;5018138;28;20197;-79
2023/02/07 09:21:17;;;;;;;11.80;8.20;;;6.50;99.90;;;;;;5000837;28;20293;-80
2023/02/07 09:23:42;;;;;;;10.63;7.80;;;6.50;99.90;;;;;;5001648;28;20432;-79
2023/02/07 09:26:10;;;;;;;10.10;8.30;;;6.60;99.90;;;;;;5036312;28;20421;-80
2023/02/07 09:28:36;;;;;;;9.87;8.03;;;6.70;99.90;;;;;;5036168;28;20190;-79
2023/02/07 09:31:13;;;;;;;9.37;8.07;;;6.40;99.90;;;;;;5035926;28;20467;-78
2023/02/07 09:33:39;;;;;;;10.77;7.93;;;6.70;99.90;;;;;;5017599;28;20511;-79
2023/02/07 09:36:05;;;;;;;8.30;7.40;;;6.60;99.90;;;;;;5017440;28;20421;-79
2023/02/07 09:38:31;;;;;;;11.70;7.43;;;6.90;99.90;;;;;;5035422;28;20424;-79
2023/02/07 09:40:58;;;;;;;12.87;8.77;;;7.40;99.90;;;;;;5001042;28;20519;-79
2023/02/07 09:43:44;;;;;;;10.80;8.07;;;7.40;99.90;;;;;;5017020;28;20557;-79
2023/02/07 09:46:24;;;;;;;9.90;7.20;;;7.30;99.90;;;;;;5015266;28;20481;-80
2023/02/07 09:48:55;;;;;;;8.90;6.90;;;7.10;99.90;;;;;;5013685;28;20469;-80
2023/02/07 09:51:22;;;;;;;9.67;7.33;;;7.50;99.90;;;;;;4997010;28;20978;-78
2023/02/07 09:54:00;;;;;;;8.23;6.90;;;7.80;99.90;;;;;;5014772;28;20421;-78
2023/02/07 09:56:28;;;;;;;7.33;6.53;;;7.80;99.90;;;;;;4980725;28;20425;-77
2023/02/07 09:59:23;;;;;;;6.93;5.83;;;7.80;99.90;;;;;;4996525;28;20953;-78
2023/02/07 10:01:54;;;;;;;7.10;6.40;;;8.00;99.90;;;;;;4984934;28;20454;-79
2023/02/07 10:04:25;;;;;;;6.80;6.10;;;7.60;99.90;;;;;;5014137;28;20426;-78
2023/02/07 10:06:56;;;;;;;10.00;7.30;;;8.10;99.90;;;;;;4979765;28;20857;-77
2023/02/07 10:09:37;;;;;;;7.80;6.80;;;8.10;99.90;;;;;;4980067;28;20520;-80
2023/02/07 10:12:16;;;;;;;10.50;7.00;;;8.30;99.90;;;;;;5012118;28;20493;-77
2023/02/07 10:15:05;;;;;;;10.10;7.70;;;8.30;99.90;;;;;;5011847;28;20426;-78
2023/02/07 10:18:03;;;;;;;8.93;7.50;;;8.50;99.90;;;;;;4979538;28;20422;-78
2023/02/07 10:20:38;;;;;;;9.80;7.20;;;8.50;99.90;;;;;;4995129;28;20458;-79
2023/02/07 10:23:22;;;;;;;8.10;7.00;;;8.80;99.90;;;;;;4979406;28;20787;-77
2023/02/07 10:26:15;;;;;;;7.63;6.73;;;9.00;99.90;;;;;;4995287;28;20426;-79
2023/02/07 10:29:05;;;;;;;7.00;5.80;;;9.40;99.90;;;;;;4995271;28;20516;-79
2023/02/07 10:31:35;;;;;;;7.20;6.20;;;9.60;99.90;;;;;;4978585;28;20499;-78
2023/02/07 10:34:10;;;;;;;8.13;6.70;;;10.00;99.60;;;;;;5012203;28;20425;-78
2023/02/07 10:36:37;;;;;;;7.27;6.57;;;10.20;98.80;;;;;;5012692;28;21059;-78
2023/02/07 10:39:32;;;;;;;8.33;7.53;;;10.20;98.20;;;;;;5017264;28;20448;-78
2023/02/07 10:41:58;;;;;;;7.07;6.10;;;10.50;98.40;;;;;;4997965;28;20447;-77
2023/02/07 10:44:24;;;;;;;9.53;6.83;;;10.80;97.30;;;;;;5031730;28;20493;-76
2023/02/07 10:46:55;;;;;;;6.00;5.40;;;10.90;96.30;;;;;;5031966;28;20421;-78
2023/02/07 10:49:24;;;;;;;6.43;5.83;;;10.90;95.40;;;;;;5013708;28;20472;-77
2023/02/07 10:51:52;;;;;;;9.10;6.30;;;10.90;96.20;;;;;;5014014;28;20957;-78
2023/02/07 10:54:19;;;;;;;8.17;6.10;;;10.70;94.80;;;;;;4997318;28;20457;-77
2023/02/07 10:56:51;;;;;;;9.97;6.27;;;10.40;94.30;;;;;;5013548;28;20417;-78
2023/02/07 10:59:44;;;;;;;6.47;5.77;;;10.00;94.90;;;;;;4997765;28;20421;-77
2023/02/07 11:02:36;;;;;;;7.97;6.37;;;9.50;95.40;;;;;;4997651;28;20417;-77
2023/02/07 11:05:26;;;;;;;7.63;5.70;;;9.20;97.00;;;;;;4997288;28;20421;-77
2023/02/07 11:08:19;;;;;;;5.57;5.00;;;8.90;97.20;;;;;;4998068;28;20460;-78
2023/02/07 11:10:45;;;;;;;6.33;5.73;;;8.80;97.40;;;;;;5003756;28;20481;-79
2023/02/07 11:13:17;;;;;;;6.63;6.03;;;8.90;96.70;;;;;;5014177;28;20421;-78
2023/02/07 11:15:46;;;;;;;6.77;6.03;;;8.80;96.90;;;;;;5014548;28;20424;-76
2023/02/07 11:18:24;;;;;;;5.93;5.33;;;8.60;97.40;;;;;;5014117;28;20487;-79
2023/02/07 11:20:52;;;;;;;6.60;5.37;;;8.40;97.20;;;;;;5031134;28;20957;-81
2023/02/07 11:23:17;;;;;;;6.30;5.70;;;8.20;97.20;;;;;;5031588;28;20505;-77
2023/02/07 11:25:46;;;;;;;6.70;6.10;;;8.20;98.40;;;;;;5017628;28;20441;-78
2023/02/07 11:28:20;;;;;;;5.83;5.33;;;8.20;99.10;;;;;;5041330;28;20439;-78
2023/02/07 11:30:50;;;;;;;7.00;6.30;;;8.30;98.50;;;;;;5018383;28;20484;-81
2023/02/07 11:33:18;;;;;;;6.57;5.37;;;8.90;98.00;;;;;;5017435;28;20425;-81
2023/02/07 11:36:00;;;;;;;7.73;5.47;;;9.50;97.30;;;;;;4999897;28;20789;-79
2023/02/07 11:38:29;;;;;;;6.80;5.80;;;9.70;95.80;;;;;;5015658;28;20428;-80
2023/02/07 11:41:02;;;;;;;6.60;6.00;;;9.40;95.30;;;;;;5014987;28;20434;-81
2023/02/07 11:43:28;;;;;;;6.27;5.73;;;9.00;95.50;;;;;;5012536;28;20422;-81
2023/02/07 11:46:01;;;;;;;6.23;5.63;;;8.50;96.20;;;;;;5018552;28;20428;-79
2023/02/07 11:48:34;;;;;;;6.00;5.50;;;8.60;96.90;;;;;;5019126;28;20185;-78
2023/02/07 11:51:02;;;;;;;6.53;5.87;;;8.90;97.00;;;;;;5019462;28;20452;-79
2023/02/07 11:53:50;;;;;;;7.27;5.17;;;9.00;96.10;;;;;;5053267;28;20412;-78
2023/02/07 11:56:24;;;;;;;6.00;5.00;;;8.70;96.00;;;;;;5053976;28;20434;-80
2023/02/07 11:58:50;;;;;;;6.17;5.57;;;9.60;96.80;;;;;;5053596;28;20789;-80
2023/02/07 12:01:20;;;;;;;6.47;5.87;;;10.60;95.80;;;;;;5021030;28;20435;-80
2023/02/07 12:03:48;;;;;;;6.53;5.90;;;11.40;93.60;;;;;;5057384;28;20420;-78
2023/02/07 12:06:18;;;;;;;6.77;6.07;;;12.00;93.20;;;;;;5057840;28;20400;-80
2023/02/07 12:08:44;;;;;;;7.87;5.90;;;12.40;91.70;;;;;;5039216;28;20416;-81
2023/02/07 12:11:31;;;;;;;6.43;5.50;;;12.70;92.10;;;;;;5038540;28;20452;-79
2023/02/07 12:14:15;;;;;;;5.00;4.50;;;12.50;90.00;;;;;;5057207;28;20408;-81
2023/02/07 12:16:48;;;;;;;6.27;5.67;;;12.30;89.90;;;;;;5039252;28;20458;-77
2023/02/07 12:19:38;;;;;;;5.87;5.30;;;12.20;91.10;;;;;;5056672;28;20489;-80
2023/02/07 12:22:20;;;;;;;5.63;5.10;;;12.30;90.40;;;;;;5038058;28;20858;-79
2023/02/07 12:25:00;;;;;;;6.47;5.63;;;12.30;89.80;;;;;;5021891;28;20781;-80
2023/02/07 12:27:34;;;;;;;5.80;5.30;;;12.30;89.70;;;;;;5039097;28;20419;-79
2023/02/07 12:30:12;;;;;;;6.10;5.13;;;12.20;89.20;;;;;;5038813;28;20561;-78
2023/02/07 12:33:11;;;;;;;6.50;5.70;;;12.20;86.80;;;;;;5056687;28;20503;-79
2023/02/07 12:36:03;;;;;;;8.23;5.30;;;12.10;86.10;;;;;;5038532;28;20435;-80
2023/02/07 12:38:55;;;;;;;6.30;5.70;;;12.00;83.00;;;;;;5021655;28;20405;-80
2023/02/07 12:41:44;;;;;;;5.40;4.90;;;11.70;84.50;;;;;;5005422;28;20484;-81
2023/02/07 12:44:37;;;;;;;5.17;4.70;;;11.40;84.50;;;;;;5023171;28;20412;-78
2023/02/07 12:47:30;;;;;;;5.70;5.20;;;11.00;86.40;;;;;;5037706;28;20404;-81
2023/02/07 12:49:56;;;;;;;5.97;4.93;;;10.70;87.30;;;;;;5055537;28;20452;-79
2023/02/07 12:52:31;;;;;;;5.73;5.23;;;10.50;89.40;;;;;;5037623;28;20916;-78
2023/02/07 12:55:14;;;;;;;7.03;5.70;;;10.40;90.10;;;;;;5020731;28;20180;-77
2023/02/07 12:58:05;;;;;;;5.97;5.43;;;10.40;90.90;;;;;;5055891;28;20758;-81
2023/02/07 13:00:34;;;;;;;9.43;5.30;;;10.30;90.80;;;;;;5054859;28;20428;-81